createdAt,value
2022-09-28T00:01:16.709Z,10.50
2022-09-28T00:03:46.374Z,10.50
2022-09-28T00:06:18.530Z,10.50
2022-09-28T00:08:45.626Z,10.50
2022-09-28T00:11:15.224Z,10.50
2022-09-28T00:13:43.035Z,10.40
2022-09-28T00:16:15.929Z,10.40
2022-09-28T00:18:50.057Z,10.40
2022-09-28T00:21:22.177Z,10.40
2022-09-28T00:24:11.351Z,10.40
2022-09-28T00:26:51.092Z,10.40
2022-09-28T00:29:21.729Z,10.40
2022-09-28T00:31:52.132Z,10.40
2022-09-28T00:34:22.431Z,10.40
2022-09-28T00:36:51.343Z,10.40
2022-09-28T00:39:18.911Z,10.40
2022-09-28T00:41:46.687Z,10.50
2022-09-28T00:44:22.551Z,10.40
2022-09-28T00:46:52.507Z,10.40
2022-09-28T00:49:22.272Z,10.50
2022-09-28T00:51:49.203Z,10.40
2022-09-28T00:54:16.746Z,10.40
2022-09-28T00:56:47.989Z,10.40
2022-09-28T00:59:17.675Z,10.50
2022-09-28T01:01:47.030Z,10.40
2022-09-28T01:04:14.066Z,10.40
2022-09-28T01:06:42.987Z,10.40
2022-09-28T01:09:12.226Z,10.40
2022-09-28T01:11:42.967Z,10.40
2022-09-28T01:14:16.883Z,10.40
2022-09-28T01:17:16.942Z,10.40
2022-09-28T01:20:05.839Z,10.40
2022-09-28T01:22:54.691Z,10.40
2022-09-28T01:25:39.804Z,10.40
2022-09-28T01:28:14.373Z,10.40
2022-09-28T01:31:05.525Z,10.30
2022-09-28T01:33:42.185Z,10.40
2022-09-28T01:36:13.913Z,10.40
2022-09-28T01:38:50.830Z,10.40
2022-09-28T01:41:19.118Z,10.30
2022-09-28T01:43:54.971Z,10.30
2022-09-28T01:46:36.001Z,10.30
2022-09-28T01:49:11.350Z,10.30
2022-09-28T01:51:49.967Z,10.30
2022-09-28T01:54:32.391Z,10.30
2022-09-28T01:57:17.824Z,10.30
2022-09-28T02:00:02.505Z,10.30
2022-09-28T02:02:57.099Z,10.30
2022-09-28T02:05:37.098Z,10.30
2022-09-28T02:08:15.756Z,10.30
2022-09-28T02:11:06.073Z,10.30
2022-09-28T02:13:40.824Z,10.30
2022-09-28T02:16:22.288Z,10.30
2022-09-28T02:18:50.286Z,10.30
2022-09-28T02:21:33.878Z,10.30
2022-09-28T02:24:10.000Z,10.20
2022-09-28T02:26:42.611Z,10.20
2022-09-28T02:29:09.425Z,10.20
2022-09-28T02:31:38.674Z,10.20
2022-09-28T02:34:05.736Z,10.20
2022-09-28T02:36:36.225Z,10.20
2022-09-28T02:39:03.169Z,10.20
2022-09-28T02:42:02.145Z,10.20
2022-09-28T02:44:42.179Z,10.20
2022-09-28T02:47:39.083Z,10.20
2022-09-28T02:50:39.667Z,10.10
2022-09-28T02:53:29.257Z,10.10
2022-09-28T02:56:34.315Z,10.20
2022-09-28T02:59:17.655Z,10.20
2022-09-28T03:02:10.826Z,10.10
2022-09-28T03:05:03.985Z,10.10
2022-09-28T03:07:49.214Z,10.10
2022-09-28T03:10:24.833Z,10.10
2022-09-28T03:12:55.569Z,10.10
2022-09-28T03:15:32.002Z,10.10
2022-09-28T03:18:00.054Z,10.10
2022-09-28T03:20:28.910Z,10.10
2022-09-28T03:23:20.100Z,10.00
2022-09-28T03:25:42.816Z,10.00
2022-09-28T03:28:09.616Z,10.00
2022-09-28T03:30:39.586Z,10.00
2022-09-28T03:33:09.109Z,10.00
2022-09-28T03:35:38.248Z,10.00
2022-09-28T03:38:05.102Z,10.00
2022-09-28T03:40:36.334Z,9.90
2022-09-28T03:43:06.062Z,9.90
2022-09-28T03:45:35.508Z,9.90
2022-09-28T03:48:02.326Z,9.80
2022-09-28T03:50:34.081Z,9.90
2022-09-28T03:53:04.163Z,9.90
2022-09-28T03:55:33.445Z,9.80
2022-09-28T03:58:02.666Z,9.80
2022-09-28T04:00:29.927Z,9.80
2022-09-28T04:02:57.282Z,9.70
2022-09-28T04:05:28.003Z,9.70
2022-09-28T04:07:57.839Z,9.80
2022-09-28T04:10:25.678Z,9.70
2022-09-28T04:12:57.551Z,9.80
2022-09-28T04:15:25.017Z,9.70
2022-09-28T04:17:52.931Z,9.70
2022-09-28T04:20:45.996Z,9.70
2022-09-28T04:23:16.167Z,9.70
2022-09-28T04:25:52.190Z,9.70
2022-09-28T04:28:40.413Z,9.70
2022-09-28T04:31:15.340Z,9.70
2022-09-28T04:33:44.713Z,9.70
2022-09-28T04:36:13.706Z,9.70
2022-09-28T04:38:53.429Z,9.60
2022-09-28T04:41:25.216Z,9.70
2022-09-28T04:43:52.042Z,9.70
2022-09-28T04:46:22.487Z,9.70
2022-09-28T04:49:02.651Z,9.70
2022-09-28T04:51:44.127Z,9.70
2022-09-28T04:54:14.389Z,9.70
2022-09-28T04:56:41.886Z,9.70
2022-09-28T04:59:12.687Z,9.70
2022-09-28T05:01:40.747Z,9.70
2022-09-28T05:04:36.401Z,9.70
2022-09-28T05:07:27.376Z,9.70
2022-09-28T05:09:55.893Z,9.70
2022-09-28T05:12:24.996Z,9.70
2022-09-28T05:14:51.786Z,9.70
2022-09-28T05:17:18.628Z,9.80
2022-09-28T05:19:59.174Z,9.80
2022-09-28T05:22:26.345Z,9.80
2022-09-28T05:24:55.020Z,9.80
2022-09-28T05:27:23.759Z,9.80
2022-09-28T05:29:59.820Z,9.80
2022-09-28T05:32:59.957Z,9.80
2022-09-28T05:35:41.522Z,9.80
2022-09-28T05:38:08.337Z,9.80
2022-09-28T05:40:37.479Z,9.80
2022-09-28T05:43:04.328Z,9.80
2022-09-28T05:45:32.293Z,9.80
2022-09-28T05:47:59.314Z,9.80
2022-09-28T05:50:26.418Z,9.90
2022-09-28T05:53:02.027Z,9.90
2022-09-28T05:55:29.803Z,9.90
2022-09-28T05:58:05.596Z,10.00
2022-09-28T06:00:33.835Z,10.00
2022-09-28T06:03:09.463Z,10.00
2022-09-28T06:05:42.066Z,10.00
2022-09-28T06:08:12.125Z,10.10
2022-09-28T06:10:43.708Z,10.10
2022-09-28T06:13:11.984Z,10.10
2022-09-28T06:15:42.579Z,10.10
2022-09-28T06:18:15.768Z,10.00
2022-09-28T06:21:02.559Z,10.10
2022-09-28T06:23:35.439Z,10.10
2022-09-28T06:26:04.672Z,10.00
2022-09-28T06:28:31.608Z,10.00
2022-09-28T06:31:03.035Z,10.00
2022-09-28T06:33:30.928Z,10.10
2022-09-28T06:35:59.441Z,10.10
2022-09-28T06:38:26.595Z,10.10
2022-09-28T06:40:54.172Z,10.10
2022-09-28T06:43:21.610Z,10.10
2022-09-28T06:46:11.563Z,10.10
2022-09-28T06:48:50.639Z,10.10
2022-09-28T06:51:39.049Z,10.20
2022-09-28T06:54:22.691Z,10.20
2022-09-28T06:56:57.622Z,10.30
2022-09-28T06:59:24.603Z,10.30
2022-09-28T07:01:56.950Z,10.40
2022-09-28T07:05:03.063Z,10.40
2022-09-28T07:07:44.767Z,10.50
2022-09-28T07:10:33.299Z,10.50
2022-09-28T07:13:38.289Z,10.50
2022-09-28T07:16:07.733Z,10.60
2022-09-28T07:18:36.221Z,10.70
2022-09-28T07:21:04.131Z,10.70
2022-09-28T07:23:39.576Z,10.70
2022-09-28T07:26:19.073Z,10.80
2022-09-28T07:29:11.018Z,11.00
2022-09-28T07:31:57.026Z,11.40
2022-09-28T07:34:43.760Z,11.70
2022-09-28T07:37:27.357Z,12.00
2022-09-28T07:40:15.752Z,12.20
2022-09-28T07:42:42.682Z,12.30
2022-09-28T07:45:13.569Z,12.30
2022-09-28T07:47:40.606Z,12.10
2022-09-28T07:50:25.978Z,12.00
2022-09-28T07:53:11.347Z,11.90
2022-09-28T07:55:52.593Z,11.80
2022-09-28T07:58:38.653Z,11.70
2022-09-28T08:01:31.537Z,11.60
2022-09-28T08:03:59.982Z,11.60
2022-09-28T08:06:26.876Z,11.60
2022-09-28T08:08:56.343Z,11.80
2022-09-28T08:11:30.274Z,11.90
2022-09-28T08:14:34.802Z,12.10
2022-09-28T08:17:24.118Z,12.30
2022-09-28T08:20:13.796Z,12.60
2022-09-28T08:22:41.821Z,12.90
2022-09-28T08:25:11.350Z,13.30
2022-09-28T08:27:38.175Z,13.50
2022-09-28T08:30:08.523Z,13.40
2022-09-28T08:33:01.430Z,13.30
2022-09-28T08:35:43.524Z,13.00
2022-09-28T08:38:31.824Z,12.80
2022-09-28T08:41:45.845Z,12.70
2022-09-28T08:44:37.878Z,12.70
2022-09-28T08:47:36.544Z,12.60
2022-09-28T08:50:31.402Z,12.50
2022-09-28T08:53:36.112Z,12.40
2022-09-28T08:56:42.415Z,12.40
2022-09-28T08:59:26.155Z,12.30
2022-09-28T09:02:06.328Z,12.90
2022-09-28T09:04:36.726Z,13.50
2022-09-28T09:07:45.774Z,13.80
2022-09-28T09:10:28.641Z,13.60
2022-09-28T09:13:06.790Z,14.00
2022-09-28T09:15:40.921Z,14.60
2022-09-28T09:18:47.899Z,14.90
2022-09-28T09:21:36.423Z,15.50
2022-09-28T09:24:21.971Z,16.10
2022-09-28T09:27:01.618Z,16.50
2022-09-28T09:29:37.634Z,17.10
2022-09-28T09:32:34.561Z,17.40
2022-09-28T09:35:31.591Z,16.70
2022-09-28T09:38:58.063Z,16.10
2022-09-28T09:42:05.802Z,15.90
2022-09-28T09:44:57.124Z,15.40
2022-09-28T09:48:02.120Z,15.00
2022-09-28T09:50:39.271Z,14.90
2022-09-28T09:53:37.679Z,14.80
2022-09-28T09:56:21.846Z,14.60
2022-09-28T09:59:18.799Z,14.50
2022-09-28T10:02:11.763Z,14.40
2022-09-28T10:04:52.821Z,14.20
2022-09-28T10:07:49.328Z,14.20
2022-09-28T10:10:29.916Z,14.10
2022-09-28T10:13:09.454Z,14.10
2022-09-28T10:15:37.328Z,14.10
2022-09-28T10:18:19.068Z,14.00
2022-09-28T10:21:05.112Z,14.00
2022-09-28T10:23:57.304Z,13.90
2022-09-28T10:26:40.921Z,13.80
2022-09-28T10:29:23.879Z,13.70
2022-09-28T10:31:52.711Z,13.60
2022-09-28T10:34:28.230Z,13.50
2022-09-28T10:37:03.237Z,13.60
2022-09-28T10:39:53.319Z,13.50
2022-09-28T10:42:25.568Z,13.50
2022-09-28T10:44:56.881Z,13.50
2022-09-28T10:47:35.550Z,13.30
2022-09-28T10:50:20.149Z,13.20
2022-09-28T10:52:47.592Z,13.20
2022-09-28T10:56:05.433Z,13.20
2022-09-28T10:58:42.994Z,13.10
2022-09-28T11:01:33.023Z,13.10
2022-09-28T11:04:02.726Z,13.10
2022-09-28T11:06:40.097Z,13.00
2022-09-28T11:09:34.060Z,12.90
2022-09-28T11:12:13.370Z,13.00
2022-09-28T11:14:42.816Z,12.90
2022-09-28T11:17:40.531Z,12.90
2022-09-28T11:20:27.451Z,12.80
2022-09-28T11:23:18.578Z,12.80
2022-09-28T11:26:02.728Z,12.70
2022-09-28T11:28:37.517Z,12.70
2022-09-28T11:31:12.353Z,12.70
2022-09-28T11:34:13.278Z,12.70
2022-09-28T11:37:42.542Z,12.70
2022-09-28T11:40:37.731Z,12.70
2022-09-28T11:43:27.431Z,12.60
2022-09-28T11:46:13.424Z,12.60
2022-09-28T11:48:49.389Z,12.60
2022-09-28T11:51:24.848Z,12.60
2022-09-28T11:53:56.881Z,12.60
2022-09-28T11:56:39.915Z,12.60
2022-09-28T11:59:31.998Z,12.70
2022-09-28T12:02:17.801Z,12.70
2022-09-28T12:05:02.952Z,12.60
2022-09-28T12:07:34.740Z,12.60
2022-09-28T12:10:13.698Z,12.60
2022-09-28T12:12:56.635Z,12.50
2022-09-28T12:15:42.181Z,12.60
2022-09-28T12:18:37.291Z,12.50
2022-09-28T12:21:09.834Z,12.50
2022-09-28T12:23:40.738Z,12.50
2022-09-28T12:26:25.930Z,12.50
2022-09-28T12:28:58.233Z,12.50
2022-09-28T12:31:34.210Z,12.50
2022-09-28T12:34:02.117Z,12.50
2022-09-28T12:36:41.482Z,12.40
2022-09-28T12:39:46.911Z,12.40
2022-09-28T12:42:29.069Z,12.40
2022-09-28T12:45:22.539Z,12.40
2022-09-28T12:48:28.278Z,12.40
2022-09-28T12:50:57.738Z,12.40
2022-09-28T12:53:47.220Z,12.40
2022-09-28T12:56:41.153Z,12.40
2022-09-28T12:59:15.487Z,12.30
2022-09-28T13:01:56.509Z,12.30
2022-09-28T13:04:45.857Z,12.30
2022-09-28T13:07:15.637Z,12.40
2022-09-28T13:10:36.687Z,12.40
2022-09-28T13:13:32.528Z,12.40
2022-09-28T13:16:34.840Z,12.50
2022-09-28T13:19:16.831Z,12.50
2022-09-28T13:22:02.617Z,12.50
2022-09-28T13:24:35.120Z,12.50
2022-09-28T13:27:29.067Z,12.40
2022-09-28T13:30:03.307Z,12.50
2022-09-28T13:32:34.429Z,12.50
2022-09-28T13:35:02.356Z,12.50
2022-09-28T13:37:29.709Z,12.60
2022-09-28T13:40:05.882Z,12.60
2022-09-28T13:42:45.115Z,12.60
2022-09-28T13:45:21.187Z,12.60
2022-09-28T13:48:00.232Z,12.60
2022-09-28T13:50:51.933Z,12.60
2022-09-28T13:53:42.180Z,12.60
2022-09-28T13:56:24.502Z,12.60
2022-09-28T13:58:57.853Z,12.50
2022-09-28T14:01:32.190Z,12.60
2022-09-28T14:04:22.482Z,12.60
2022-09-28T14:07:10.634Z,12.50
2022-09-28T14:09:40.915Z,12.60
2022-09-28T14:12:37.185Z,12.60
2022-09-28T14:15:26.594Z,12.70
2022-09-28T14:18:04.225Z,12.70
2022-09-28T14:20:31.800Z,12.80
2022-09-28T14:23:28.682Z,12.80
2022-09-28T14:26:04.100Z,12.80
2022-09-28T14:28:50.837Z,12.80
2022-09-28T14:31:27.900Z,12.80
2022-09-28T14:34:01.219Z,12.90
2022-09-28T14:37:01.253Z,12.90
2022-09-28T14:39:56.129Z,12.90
2022-09-28T14:42:26.752Z,12.90
2022-09-28T14:45:06.617Z,12.90
2022-09-28T14:47:42.332Z,12.90
2022-09-28T14:50:30.678Z,12.90
2022-09-28T14:53:04.996Z,12.90
2022-09-28T14:55:39.013Z,13.00
2022-09-28T14:58:13.766Z,13.00
2022-09-28T15:00:44.028Z,12.90
2022-09-28T15:03:13.163Z,12.90
2022-09-28T15:05:47.126Z,12.90
2022-09-28T15:08:14.876Z,12.90
2022-09-28T15:10:52.633Z,12.90
2022-09-28T15:13:29.991Z,12.90
2022-09-28T15:16:09.161Z,12.90
2022-09-28T15:18:57.184Z,12.90
2022-09-28T15:21:31.702Z,13.00
2022-09-28T15:23:58.631Z,12.90
2022-09-28T15:26:30.946Z,12.90
2022-09-28T15:28:58.463Z,12.80
2022-09-28T15:31:30.344Z,12.80
2022-09-28T15:34:18.381Z,12.80
2022-09-28T15:36:46.892Z,12.70
2022-09-28T15:39:20.905Z,12.70
2022-09-28T15:41:51.093Z,12.60
2022-09-28T15:44:38.982Z,12.60
2022-09-28T15:47:15.683Z,12.60
2022-09-28T15:50:16.088Z,12.50
2022-09-28T15:52:47.234Z,12.50
2022-09-28T15:55:35.934Z,12.50
2022-09-28T15:58:20.847Z,12.40
2022-09-28T16:01:20.200Z,12.40
2022-09-28T16:03:52.634Z,12.30
2022-09-28T16:06:19.777Z,12.30
2022-09-28T16:08:49.061Z,12.30
2022-09-28T16:11:34.978Z,12.30
2022-09-28T16:14:19.515Z,12.20
2022-09-28T16:16:58.785Z,12.20
2022-09-28T16:19:30.320Z,12.10
2022-09-28T16:22:04.182Z,12.10
2022-09-28T16:24:41.256Z,12.20
2022-09-28T16:27:30.286Z,12.10
2022-09-28T16:30:19.859Z,12.10
2022-09-28T16:32:56.113Z,12.10
2022-09-28T16:35:27.574Z,12.00
2022-09-28T16:38:02.648Z,12.00
2022-09-28T16:40:36.283Z,12.00
2022-09-28T16:43:09.338Z,12.00
2022-09-28T16:45:42.282Z,11.90
2022-09-28T16:48:17.772Z,11.90
2022-09-28T16:50:53.014Z,11.90
2022-09-28T16:53:48.251Z,11.90
2022-09-28T16:56:23.922Z,11.90
2022-09-28T16:58:55.538Z,11.90
2022-09-28T17:01:29.802Z,11.80
2022-09-28T17:03:57.612Z,11.80
2022-09-28T17:06:25.434Z,11.70
2022-09-28T17:08:55.245Z,11.70
2022-09-28T17:11:24.857Z,11.70
2022-09-28T17:14:01.574Z,11.70
2022-09-28T17:17:02.715Z,11.70
2022-09-28T17:19:26.284Z,11.70
2022-09-28T17:21:54.149Z,11.70
2022-09-28T17:24:21.796Z,11.70
2022-09-28T17:26:56.174Z,11.70
2022-09-28T17:29:28.047Z,11.60
2022-09-28T17:31:58.224Z,11.60
2022-09-28T17:34:28.082Z,11.60
2022-09-28T17:36:57.839Z,11.60
2022-09-28T17:39:25.248Z,11.70
2022-09-28T17:41:55.538Z,11.70
2022-09-28T17:44:36.291Z,11.60
2022-09-28T17:47:08.221Z,11.60
2022-09-28T17:49:35.454Z,11.60
2022-09-28T17:52:05.608Z,11.60
2022-09-28T17:54:39.076Z,11.60
2022-09-28T17:57:06.283Z,11.60
2022-09-28T17:59:38.970Z,11.60
2022-09-28T18:02:06.657Z,11.60
2022-09-28T18:04:51.342Z,11.60
2022-09-28T18:07:19.178Z,11.60
2022-09-28T18:09:56.869Z,11.60
2022-09-28T18:12:25.129Z,11.60
2022-09-28T18:14:58.739Z,11.60
2022-09-28T18:17:31.328Z,11.60
2022-09-28T18:19:58.402Z,11.60
2022-09-28T18:22:28.495Z,11.60
2022-09-28T18:24:58.712Z,11.60
2022-09-28T18:27:31.477Z,11.60
2022-09-28T18:30:01.464Z,11.60
2022-09-28T18:32:28.654Z,11.60
2022-09-28T18:34:55.613Z,11.60
2022-09-28T18:37:24.707Z,11.50
2022-09-28T18:39:52.365Z,11.50
2022-09-28T18:42:21.531Z,11.50
2022-09-28T18:44:48.265Z,11.50
2022-09-28T18:47:18.453Z,11.50
2022-09-28T18:49:46.800Z,11.50
2022-09-28T18:52:13.789Z,11.50
2022-09-28T18:54:42.854Z,11.40
2022-09-28T18:57:09.635Z,11.40
2022-09-28T18:59:36.437Z,11.40
2022-09-28T19:02:03.726Z,11.40
2022-09-28T19:04:31.125Z,11.40
2022-09-28T19:06:58.026Z,11.40
2022-09-28T19:09:26.505Z,11.40
2022-09-28T19:11:55.736Z,11.30
2022-09-28T19:14:22.732Z,11.30
2022-09-28T19:16:51.848Z,11.30
2022-09-28T19:19:20.254Z,11.30
2022-09-28T19:21:47.731Z,11.30
2022-09-28T19:24:16.921Z,11.20
2022-09-28T19:26:48.917Z,11.20
2022-09-28T19:29:16.345Z,11.20
2022-09-28T19:31:45.846Z,11.20
2022-09-28T19:34:15.991Z,11.20
2022-09-28T19:36:45.552Z,11.10
2022-09-28T19:39:14.878Z,11.10
2022-09-28T19:41:45.589Z,11.10
2022-09-28T19:44:27.719Z,11.10
2022-09-28T19:46:56.533Z,11.00
2022-09-28T19:49:25.440Z,11.00
2022-09-28T19:52:14.237Z,11.00
2022-09-28T19:54:57.015Z,11.00
2022-09-28T19:57:28.726Z,11.00
2022-09-28T20:00:01.807Z,11.00
2022-09-28T20:02:32.850Z,10.90
2022-09-28T20:05:00.237Z,10.90
2022-09-28T20:07:27.127Z,10.90
2022-09-28T20:09:54.155Z,10.90
2022-09-28T20:12:23.644Z,10.90
2022-09-28T20:14:50.385Z,10.90
2022-09-28T20:17:21.663Z,10.90
2022-09-28T20:19:51.116Z,10.90
2022-09-28T20:22:18.663Z,10.90
2022-09-28T20:24:45.481Z,10.90
2022-09-28T20:27:14.483Z,10.90
2022-09-28T20:29:42.964Z,10.90
2022-09-28T20:32:12.160Z,10.90
2022-09-28T20:34:38.969Z,10.80
2022-09-28T20:37:05.915Z,10.90
2022-09-28T20:39:32.679Z,10.90
2022-09-28T20:41:59.454Z,10.80
2022-09-28T20:44:26.292Z,10.80
2022-09-28T20:46:56.640Z,10.80
2022-09-28T20:49:27.145Z,10.80
2022-09-28T20:51:54.462Z,10.80
2022-09-28T20:54:21.719Z,10.80
2022-09-28T20:56:48.601Z,10.80
2022-09-28T20:59:17.752Z,10.80
2022-09-28T21:01:44.939Z,10.70
2022-09-28T21:04:14.501Z,10.80
2022-09-28T21:06:42.577Z,10.70
2022-09-28T21:09:10.747Z,10.70
2022-09-28T21:11:40.248Z,10.70
2022-09-28T21:14:08.553Z,10.70
2022-09-28T21:16:35.816Z,10.70
2022-09-28T21:19:03.186Z,10.70
2022-09-28T21:21:30.069Z,10.70
2022-09-28T21:24:00.131Z,10.70
2022-09-28T21:26:29.332Z,10.70
2022-09-28T21:28:59.131Z,10.70
2022-09-28T21:31:29.583Z,10.70
2022-09-28T21:33:57.437Z,10.70
2022-09-28T21:36:25.062Z,10.70
2022-09-28T21:38:51.889Z,10.70
2022-09-28T21:41:20.787Z,10.70
2022-09-28T21:43:50.004Z,10.70
2022-09-28T21:46:17.627Z,10.70
2022-09-28T21:48:44.486Z,10.70
2022-09-28T21:51:16.034Z,10.70
2022-09-28T21:53:42.954Z,10.70
2022-09-28T21:56:11.435Z,10.70
2022-09-28T21:58:38.731Z,10.70
2022-09-28T22:01:07.310Z,10.70
2022-09-28T22:03:35.877Z,10.70
2022-09-28T22:06:04.020Z,10.70
2022-09-28T22:08:30.835Z,10.70
2022-09-28T22:11:05.687Z,10.70
2022-09-28T22:13:39.660Z,10.70
2022-09-28T22:16:14.384Z,10.70
2022-09-28T22:18:41.878Z,10.70
2022-09-28T22:21:12.517Z,10.60
2022-09-28T22:23:40.282Z,10.70
2022-09-28T22:26:13.813Z,10.70
2022-09-28T22:28:46.791Z,10.70
2022-09-28T22:31:20.321Z,10.60
2022-09-28T22:33:51.883Z,10.70
2022-09-28T22:36:19.954Z,10.60
2022-09-28T22:38:47.615Z,10.60
2022-09-28T22:41:15.944Z,10.60
2022-09-28T22:43:43.444Z,10.60
2022-09-28T22:46:15.152Z,10.60
2022-09-28T22:48:44.596Z,10.50
2022-09-28T22:51:13.790Z,10.50
2022-09-28T22:53:40.638Z,10.50
2022-09-28T22:56:14.626Z,10.50
2022-09-28T22:58:47.312Z,10.50
2022-09-28T23:01:19.207Z,10.50
2022-09-28T23:03:46.894Z,10.50
2022-09-28T23:06:16.543Z,10.50
2022-09-28T23:08:44.640Z,10.50
2022-09-28T23:11:14.121Z,10.40
2022-09-28T23:13:43.729Z,10.40
2022-09-28T23:16:14.845Z,10.40
2022-09-28T23:18:42.010Z,10.40
2022-09-28T23:21:18.041Z,10.40
2022-09-28T23:23:46.332Z,10.40
2022-09-28T23:26:24.495Z,10.40
2022-09-28T23:28:56.672Z,10.30
2022-09-28T23:32:32.152Z,10.30
2022-09-28T23:34:59.058Z,10.30
2022-09-28T23:37:25.755Z,10.20
2022-09-28T23:39:53.300Z,10.20
2022-09-28T23:42:22.204Z,10.20
2022-09-28T23:44:56.977Z,10.20
2022-09-28T23:47:23.727Z,10.10
2022-09-28T23:49:52.782Z,10.10
2022-09-28T23:52:24.133Z,10.10
2022-09-28T23:54:50.865Z,10.10
2022-09-28T23:57:17.781Z,10.10
2022-09-28T23:59:49.165Z,10.00
